sensor_id;sensor_type;location;lat;lon;timestamp;pressure;altitude;pressure_sealevel;temperature;humidity
68891;BME280;55932;48.702;8.884;2024-02-26T00:02:28;94290;;;4.9;72
68891;BME280;55932;48.702;8.884;2024-02-26T00:04:58;94280;;;4.9;72.5
68891;BME280;55932;48.702;8.884;2024-02-26T00:07:35;94280;;;4.9;72.5
68891;BME280;55932;48.702;8.884;2024-02-26T00:10:06;94290;;;5.1;72
68891;BME280;55932;48.702;8.884;2024-02-26T00:12:31;94280;;;5.2;72
68891;BME280;55932;48.702;8.884;2024-02-26T00:17:25;94280;;;5.4;71.5
68891;BME280;55932;48.702;8.884;2024-02-26T00:19:56;94270;;;5.5;71.5
68891;BME280;55932;48.702;8.884;2024-02-26T00:22:27;94270;;;5.6;71.5
68891;BME280;55932;48.702;8.884;2024-02-26T00:24:57;94270;;;5.5;72
68891;BME280;55932;48.702;8.884;2024-02-26T00:27:28;94270;;;5.5;72
68891;BME280;55932;48.702;8.884;2024-02-26T00:42:45;94270;;;5.9;71.5
68891;BME280;55932;48.702;8.884;2024-02-26T00:50:09;94260;;;6.1;71.5
68891;BME280;55932;48.702;8.884;2024-02-26T00:52:40;94250;;;6.1;71.5
68891;BME280;55932;48.702;8.884;2024-02-26T00:55:11;94240;;;6.1;71
68891;BME280;55932;48.702;8.884;2024-02-26T01:02:37;94230;;;5.5;72.5
68891;BME280;55932;48.702;8.884;2024-02-26T01:05:08;94230;;;5.5;72
68891;BME280;55932;48.702;8.884;2024-02-26T01:07:38;94240;;;5.5;72
68891;BME280;55932;48.702;8.884;2024-02-26T01:10:08;94250;;;5.5;72
68891;BME280;55932;48.702;8.884;2024-02-26T01:15:10;94270;;;5.3;72
68891;BME280;55932;48.702;8.884;2024-02-26T01:20:37;94270;;;5.9;71.5
68891;BME280;55932;48.702;8.884;2024-02-26T01:22:54;94280;;;5.7;72
68891;BME280;55932;48.702;8.884;2024-02-26T01:27:48;94280;;;5.5;72
68891;BME280;55932;48.702;8.884;2024-02-26T01:30:19;94290;;;5.5;72
68891;BME280;55932;48.702;8.884;2024-02-26T01:32:50;94280;;;5.6;72
68891;BME280;55932;48.702;8.884;2024-02-26T01:35:14;94290;;;5.7;72
68891;BME280;55932;48.702;8.884;2024-02-26T01:42:46;94290;;;6;71.5
68891;BME280;55932;48.702;8.884;2024-02-26T01:45:17;94290;;;6;71.5
68891;BME280;55932;48.702;8.884;2024-02-26T01:47:49;94290;;;5.8;72
68891;BME280;55932;48.702;8.884;2024-02-26T01:50:31;94320;;;5.6;72
68891;BME280;55932;48.702;8.884;2024-02-26T01:52:56;94320;;;5.6;72
68891;BME280;55932;48.702;8.884;2024-02-26T01:55:27;94320;;;5.7;72
68891;BME280;55932;48.702;8.884;2024-02-26T02:00:22;94320;;;5.8;72
68891;BME280;55932;48.702;8.884;2024-02-26T02:02:53;94320;;;5.7;71.5
68891;BME280;55932;48.702;8.884;2024-02-26T02:10:26;94310;;;6;72
68891;BME280;55932;48.702;8.884;2024-02-26T02:12:56;94300;;;6.1;72
68891;BME280;55932;48.702;8.884;2024-02-26T02:15:27;94300;;;6.5;71
68891;BME280;55932;48.702;8.884;2024-02-26T02:17:57;94320;;;6.4;71.5
68891;BME280;55932;48.702;8.884;2024-02-26T02:20:35;94320;;;6.4;71.5
68891;BME280;55932;48.702;8.884;2024-02-26T02:23:06;94320;;;6.6;71.5
68891;BME280;55932;48.702;8.884;2024-02-26T02:25:37;94320;;;6.6;71.5
68891;BME280;55932;48.702;8.884;2024-02-26T02:28:00;94320;;;6.4;71.5
68891;BME280;55932;48.702;8.884;2024-02-26T02:30:31;94310;;;6.2;71.5
68891;BME280;55932;48.702;8.884;2024-02-26T02:45:36;94290;;;6.4;71.5
68891;BME280;55932;48.702;8.884;2024-02-26T02:48:06;94290;;;6.4;71.5
68891;BME280;55932;48.702;8.884;2024-02-26T02:50:37;94290;;;6.4;71
68891;BME280;55932;48.702;8.884;2024-02-26T02:53:08;94300;;;6.3;71.5
68891;BME280;55932;48.702;8.884;2024-02-26T02:55:39;94300;;;6;72
68891;BME280;55932;48.702;8.884;2024-02-26T02:58:23;94300;;;5.9;72
68891;BME280;55932;48.702;8.884;2024-02-26T03:00:53;94300;;;5.9;72
68891;BME280;55932;48.702;8.884;2024-02-26T03:03:23;94320;;;5.9;72
68891;BME280;55932;48.702;8.884;2024-02-26T03:08:17;94290;;;5.9;72
68891;BME280;55932;48.702;8.884;2024-02-26T03:10:55;94300;;;5.8;72
68891;BME280;55932;48.702;8.884;2024-02-26T03:15:50;94300;;;6;71.5
68891;BME280;55932;48.702;8.884;2024-02-26T03:18:27;94300;;;6.1;71.5
68891;BME280;55932;48.702;8.884;2024-02-26T03:23:27;94290;;;6.1;71.5
68891;BME280;55932;48.702;8.884;2024-02-26T03:28:35;94270;;;6;72
68891;BME280;55932;48.702;8.884;2024-02-26T03:30:59;94260;;;6.2;71.5
68891;BME280;55932;48.702;8.884;2024-02-26T03:33:29;94250;;;6.2;71.5
68891;BME280;55932;48.702;8.884;2024-02-26T03:38:29;94240;;;6;72
68891;BME280;55932;48.702;8.884;2024-02-26T03:41:00;94240;;;5.9;72
68891;BME280;55932;48.702;8.884;2024-02-26T03:43:30;94240;;;5.8;72.5
68891;BME280;55932;48.702;8.884;2024-02-26T03:46:00;94250;;;5.7;72
68891;BME280;55932;48.702;8.884;2024-02-26T03:48:30;94250;;;5.6;72
68891;BME280;55932;48.702;8.884;2024-02-26T03:51:01;94250;;;5.6;72.5
68891;BME280;55932;48.702;8.884;2024-02-26T03:55:56;94250;;;5.7;72
68891;BME280;55932;48.702;8.884;2024-02-26T04:01:07;94250;;;5.6;72.5
68891;BME280;55932;48.702;8.884;2024-02-26T04:03:35;94240;;;5.5;72.5
68891;BME280;55932;48.702;8.884;2024-02-26T04:08:29;94250;;;5.4;72.5
68891;BME280;55932;48.702;8.884;2024-02-26T04:11:00;94240;;;5.5;72.5
68891;BME280;55932;48.702;8.884;2024-02-26T04:15:54;94240;;;5.6;72
68891;BME280;55932;48.702;8.884;2024-02-26T04:25:58;94250;;;5.7;72
68891;BME280;55932;48.702;8.884;2024-02-26T04:28:28;94250;;;5.7;72
68891;BME280;55932;48.702;8.884;2024-02-26T04:30:59;94250;;;5.7;72
68891;BME280;55932;48.702;8.884;2024-02-26T04:33:43;94260;;;5.8;72
68891;BME280;55932;48.702;8.884;2024-02-26T04:36:13;94260;;;5.8;72
68891;BME280;55932;48.702;8.884;2024-02-26T04:38:43;94250;;;5.7;72
68891;BME280;55932;48.702;8.884;2024-02-26T04:41:13;94250;;;5.6;72
68891;BME280;55932;48.702;8.884;2024-02-26T04:46:08;94270;;;5.7;72
68891;BME280;55932;48.702;8.884;2024-02-26T04:48:45;94260;;;5.8;72
68891;BME280;55932;48.702;8.884;2024-02-26T04:51:16;94260;;;5.8;72
68891;BME280;55932;48.702;8.884;2024-02-26T04:56:11;94270;;;5.8;72
68891;BME280;55932;48.702;8.884;2024-02-26T04:58:42;94280;;;5.7;72
68891;BME280;55932;48.702;8.884;2024-02-26T05:01:13;94280;;;5.7;72
68891;BME280;55932;48.702;8.884;2024-02-26T05:03:44;94290;;;5.7;72
68891;BME280;55932;48.702;8.884;2024-02-26T05:06:15;94280;;;5.7;72
68891;BME280;55932;48.702;8.884;2024-02-26T05:11:10;94290;;;5.7;72
68891;BME280;55932;48.702;8.884;2024-02-26T05:13:41;94300;;;5.5;72.5
68891;BME280;55932;48.702;8.884;2024-02-26T05:21:14;94320;;;5.4;72.5
68891;BME280;55932;48.702;8.884;2024-02-26T05:23:44;94320;;;5.4;72.5
68891;BME280;55932;48.702;8.884;2024-02-26T05:26:22;94320;;;5.5;72.5
68891;BME280;55932;48.702;8.884;2024-02-26T05:28:52;94320;;;5.5;72.5
68891;BME280;55932;48.702;8.884;2024-02-26T05:31:23;94330;;;5.5;72
68891;BME280;55932;48.702;8.884;2024-02-26T05:33:54;94330;;;5.5;72
68891;BME280;55932;48.702;8.884;2024-02-26T05:36:25;94330;;;5.6;72
68891;BME280;55932;48.702;8.884;2024-02-26T05:48:52;94320;;;5.1;72
68891;BME280;55932;48.702;8.884;2024-02-26T05:51:23;94310;;;5.1;72
68891;BME280;55932;48.702;8.884;2024-02-26T05:53:54;94320;;;4.8;72.5
68891;BME280;55932;48.702;8.884;2024-02-26T05:56:26;94320;;;4.5;73
68891;BME280;55932;48.702;8.884;2024-02-26T05:58:56;94330;;;4.5;73
68891;BME280;55932;48.702;8.884;2024-02-26T06:04:03;94320;;;4.4;73
68891;BME280;55932;48.702;8.884;2024-02-26T06:06:34;94320;;;4.5;73
68891;BME280;55932;48.702;8.884;2024-02-26T06:09:05;94330;;;4.5;73
68891;BME280;55932;48.702;8.884;2024-02-26T06:11:36;94320;;;4.5;73
68891;BME280;55932;48.702;8.884;2024-02-26T06:14:20;94320;;;4.6;72.5
68891;BME280;55932;48.702;8.884;2024-02-26T06:16:50;94340;;;4.6;72.5
68891;BME280;55932;48.702;8.884;2024-02-26T06:19:20;94330;;;4.6;72.5
68891;BME280;55932;48.702;8.884;2024-02-26T06:24:14;94350;;;4.6;72.5
68891;BME280;55932;48.702;8.884;2024-02-26T06:26:38;94360;;;4.6;72.5
68891;BME280;55932;48.702;8.884;2024-02-26T06:31:34;94360;;;4.7;72
68891;BME280;55932;48.702;8.884;2024-02-26T06:34:04;94360;;;4.6;72.5
68891;BME280;55932;48.702;8.884;2024-02-26T06:41:37;94380;;;4.6;72.5
68891;BME280;55932;48.702;8.884;2024-02-26T06:44:08;94380;;;4.6;72.5
68891;BME280;55932;48.702;8.884;2024-02-26T06:46:38;94380;;;4.7;72.5
68891;BME280;55932;48.702;8.884;2024-02-26T06:49:09;94380;;;4.7;72.5
68891;BME280;55932;48.702;8.884;2024-02-26T06:51:40;94390;;;4.8;72.5
68891;BME280;55932;48.702;8.884;2024-02-26T06:54:11;94390;;;4.9;72.5
68891;BME280;55932;48.702;8.884;2024-02-26T06:56:41;94390;;;5;72
68891;BME280;55932;48.702;8.884;2024-02-26T06:59:12;94390;;;5.1;72
68891;BME280;55932;48.702;8.884;2024-02-26T07:01:43;94390;;;5.1;72
68891;BME280;55932;48.702;8.884;2024-02-26T07:09:15;94400;;;5.3;72
68891;BME280;55932;48.702;8.884;2024-02-26T07:11:46;94400;;;5.3;71.5
68891;BME280;55932;48.702;8.884;2024-02-26T07:16:54;94400;;;5.4;71.5
68891;BME280;55932;48.702;8.884;2024-02-26T07:19:24;94400;;;5.5;72
68891;BME280;55932;48.702;8.884;2024-02-26T07:21:56;94400;;;5.5;72
68891;BME280;55932;48.702;8.884;2024-02-26T07:24:27;94400;;;5.6;71.5
68891;BME280;55932;48.702;8.884;2024-02-26T07:26:57;94390;;;5.6;71.5
68891;BME280;55932;48.702;8.884;2024-02-26T07:36:55;94380;;;5.7;72
68891;BME280;55932;48.702;8.884;2024-02-26T07:39:25;94390;;;5.7;72
68891;BME280;55932;48.702;8.884;2024-02-26T07:41:55;94390;;;5.9;71.5
68891;BME280;55932;48.702;8.884;2024-02-26T07:44:26;94380;;;5.9;72
68891;BME280;55932;48.702;8.884;2024-02-26T07:46:57;94390;;;6;72
68891;BME280;55932;48.702;8.884;2024-02-26T07:49:34;94380;;;6.1;71.5
68891;BME280;55932;48.702;8.884;2024-02-26T07:52:05;94390;;;6.2;72
68891;BME280;55932;48.702;8.884;2024-02-26T07:54:36;94390;;;6.3;72
68891;BME280;55932;48.702;8.884;2024-02-26T07:57:07;94400;;;6.3;72
68891;BME280;55932;48.702;8.884;2024-02-26T08:07:03;94400;;;7.2;70.5
68891;BME280;55932;48.702;8.884;2024-02-26T08:09:34;94400;;;7.3;70.5
68891;BME280;55932;48.702;8.884;2024-02-26T08:12:05;94400;;;7.3;71
68891;BME280;55932;48.702;8.884;2024-02-26T08:14:35;94390;;;7.4;70.5
68891;BME280;55932;48.702;8.884;2024-02-26T08:17:06;94390;;;7.5;70.5
68891;BME280;55932;48.702;8.884;2024-02-26T08:19:37;94390;;;7.4;71
68891;BME280;55932;48.702;8.884;2024-02-26T08:22:14;94400;;;7.4;71.5
68891;BME280;55932;48.702;8.884;2024-02-26T08:24:45;94400;;;7.4;71.5
68891;BME280;55932;48.702;8.884;2024-02-26T08:27:16;94400;;;7.5;71.5
68891;BME280;55932;48.702;8.884;2024-02-26T08:29:47;94400;;;7.6;71.5
68891;BME280;55932;48.702;8.884;2024-02-26T08:32:18;94400;;;7.7;71
68891;BME280;55932;48.702;8.884;2024-02-26T08:34:49;94400;;;7.6;71.5
68891;BME280;55932;48.702;8.884;2024-02-26T08:42:28;94410;;;7.2;71.5
68891;BME280;55932;48.702;8.884;2024-02-26T08:45:11;94420;;;7.1;71.5
68891;BME280;55932;48.702;8.884;2024-02-26T08:52:30;94430;;;7.2;71.5
68891;BME280;55932;48.702;8.884;2024-02-26T08:57:25;94430;;;7.4;71.5
68891;BME280;55932;48.702;8.884;2024-02-26T08:59:56;94420;;;7.4;71.5
68891;BME280;55932;48.702;8.884;2024-02-26T09:04:58;94430;;;7.4;71.5
68891;BME280;55932;48.702;8.884;2024-02-26T09:07:28;94430;;;7.6;71.5
68891;BME280;55932;48.702;8.884;2024-02-26T09:10:00;94420;;;7.9;71
68891;BME280;55932;48.702;8.884;2024-02-26T09:12:31;94420;;;8.1;70.5
68891;BME280;55932;48.702;8.884;2024-02-26T09:15:02;94410;;;8.1;70
68891;BME280;55932;48.702;8.884;2024-02-26T09:17:33;94420;;;7.9;70
68891;BME280;55932;48.702;8.884;2024-02-26T09:20:04;94430;;;8;70.5
68891;BME280;55932;48.702;8.884;2024-02-26T09:22:41;94420;;;8.2;70.5
68891;BME280;55932;48.702;8.884;2024-02-26T09:25:05;94420;;;8.4;70.5
68891;BME280;55932;48.702;8.884;2024-02-26T09:27:36;94430;;;8.5;71
68891;BME280;55932;48.702;8.884;2024-02-26T09:32:46;94440;;;8.8;71
68891;BME280;55932;48.702;8.884;2024-02-26T09:35:10;94430;;;9.2;70.5
68891;BME280;55932;48.702;8.884;2024-02-26T09:37:40;94420;;;9.2;70
68891;BME280;55932;48.702;8.884;2024-02-26T09:40:11;94420;;;9.3;70
68891;BME280;55932;48.702;8.884;2024-02-26T09:42:43;94430;;;9.4;70.5
68891;BME280;55932;48.702;8.884;2024-02-26T09:45:17;94430;;;9.8;70.5
68891;BME280;55932;48.702;8.884;2024-02-26T09:47:44;94430;;;10.1;69.5
68891;BME280;55932;48.702;8.884;2024-02-26T09:50:16;94430;;;10.4;69.5
68891;BME280;55932;48.702;8.884;2024-02-26T09:52:46;94430;;;10.8;70.5
68891;BME280;55932;48.702;8.884;2024-02-26T09:55:17;94440;;;11.2;70.5
68891;BME280;55932;48.702;8.884;2024-02-26T09:57:48;94440;;;11.9;70
68891;BME280;55932;48.702;8.884;2024-02-26T10:00:25;94440;;;12.8;70.5
68891;BME280;55932;48.702;8.884;2024-02-26T10:02:56;94430;;;13.3;68.5
68891;BME280;55932;48.702;8.884;2024-02-26T10:07:52;94440;;;12.1;70
68891;BME280;55932;48.702;8.884;2024-02-26T10:10:23;94450;;;11.8;70
68891;BME280;55932;48.702;8.884;2024-02-26T10:12:54;94450;;;11.5;70
68891;BME280;55932;48.702;8.884;2024-02-26T10:15:25;94440;;;11.6;70.5
68891;BME280;55932;48.702;8.884;2024-02-26T10:17:55;94440;;;11.6;70
68891;BME280;55932;48.702;8.884;2024-02-26T10:20:27;94440;;;11.5;70.5
68891;BME280;55932;48.702;8.884;2024-02-26T10:23:04;94440;;;11.8;69.5
68891;BME280;55932;48.702;8.884;2024-02-26T10:25:28;94440;;;11.8;70
68891;BME280;55932;48.702;8.884;2024-02-26T10:28:06;94440;;;12.1;69
68891;BME280;55932;48.702;8.884;2024-02-26T10:33:02;94440;;;12.5;69
68891;BME280;55932;48.702;8.884;2024-02-26T10:35:32;94450;;;12.3;69.5
68891;BME280;55932;48.702;8.884;2024-02-26T10:38:03;94450;;;12.3;69.5
68891;BME280;55932;48.702;8.884;2024-02-26T10:40:34;94450;;;12.3;70.5
68891;BME280;55932;48.702;8.884;2024-02-26T10:43:05;94460;;;12.6;70.5
68891;BME280;55932;48.702;8.884;2024-02-26T10:45:36;94460;;;13;71
68891;BME280;55932;48.702;8.884;2024-02-26T10:48:09;94470;;;13.9;69.5
68891;BME280;55932;48.702;8.884;2024-02-26T10:50:38;94470;;;14.1;68.5
68891;BME280;55932;48.702;8.884;2024-02-26T10:53:15;94470;;;14.1;68.5
68891;BME280;55932;48.702;8.884;2024-02-26T10:55:48;94470;;;14;69.5
68891;BME280;55932;48.702;8.884;2024-02-26T10:58:17;94480;;;13.8;69
68891;BME280;55932;48.702;8.884;2024-02-26T11:00:42;94480;;;13.9;69.5
68891;BME280;55932;48.702;8.884;2024-02-26T11:03:17;94480;;;14;69.5
68891;BME280;55932;48.702;8.884;2024-02-26T11:05:44;94470;;;14.1;69
68891;BME280;55932;48.702;8.884;2024-02-26T11:08:16;94470;;;14.9;68.5
68891;BME280;55932;48.702;8.884;2024-02-26T11:10:47;94460;;;15.6;68
68891;BME280;55932;48.702;8.884;2024-02-26T11:13:17;94460;;;15.6;68
68891;BME280;55932;48.702;8.884;2024-02-26T11:15:47;94450;;;15.6;68
68891;BME280;55932;48.702;8.884;2024-02-26T11:18:11;94460;;;14.9;69.5
68891;BME280;55932;48.702;8.884;2024-02-26T11:23:13;94480;;;14.6;69.5
68891;BME280;55932;48.702;8.884;2024-02-26T11:25:44;94480;;;14.6;70
68891;BME280;55932;48.702;8.884;2024-02-26T11:28:15;94480;;;14.8;70.5
68891;BME280;55932;48.702;8.884;2024-02-26T11:30:46;94470;;;15.1;70.5
68891;BME280;55932;48.702;8.884;2024-02-26T11:35:53;94480;;;15;70.5
68891;BME280;55932;48.702;8.884;2024-02-26T11:38:24;94470;;;16.4;70
68891;BME280;55932;48.702;8.884;2024-02-26T11:40:55;94480;;;18;67.5
68891;BME280;55932;48.702;8.884;2024-02-26T11:53:23;94470;;;17.5;67.5
68891;BME280;55932;48.702;8.884;2024-02-26T11:56:24;94470;;;15.8;69
68891;BME280;55932;48.702;8.884;2024-02-26T11:58:23;94480;;;14.6;70
68891;BME280;55932;48.702;8.884;2024-02-26T12:00:57;94480;;;14.2;70.5
68891;BME280;55932;48.702;8.884;2024-02-26T12:03:25;94490;;;13.9;71
68891;BME280;55932;48.702;8.884;2024-02-26T12:06:03;94490;;;13.9;71
68891;BME280;55932;48.702;8.884;2024-02-26T12:08:34;94490;;;14.2;70.5
68891;BME280;55932;48.702;8.884;2024-02-26T12:11:04;94490;;;14.1;70.5
68891;BME280;55932;48.702;8.884;2024-02-26T12:13:35;94490;;;14.1;70.5
68891;BME280;55932;48.702;8.884;2024-02-26T12:16:08;94490;;;13.9;70.5
68891;BME280;55932;48.702;8.884;2024-02-26T12:18:52;94500;;;13.6;70.5
68891;BME280;55932;48.702;8.884;2024-02-26T12:23:39;94500;;;13.3;70.5
68891;BME280;55932;48.702;8.884;2024-02-26T12:28:48;94500;;;13.2;70.5
68891;BME280;55932;48.702;8.884;2024-02-26T12:31:30;94490;;;13.2;70
68891;BME280;55932;48.702;8.884;2024-02-26T12:36:12;94490;;;13.2;70
68891;BME280;55932;48.702;8.884;2024-02-26T12:38:43;94490;;;13.5;70
68891;BME280;55932;48.702;8.884;2024-02-26T12:41:14;94490;;;13.6;69.5
68891;BME280;55932;48.702;8.884;2024-02-26T12:43:53;94490;;;13.6;69.5
68891;BME280;55932;48.702;8.884;2024-02-26T12:48:59;94490;;;13.9;69
68891;BME280;55932;48.702;8.884;2024-02-26T12:51:23;94500;;;13.9;69.5
68891;BME280;55932;48.702;8.884;2024-02-26T12:53:53;94500;;;14.3;69.5
68891;BME280;55932;48.702;8.884;2024-02-26T12:56:24;94500;;;14.9;69
68891;BME280;55932;48.702;8.884;2024-02-26T12:58:53;94500;;;15.6;68
68891;BME280;55932;48.702;8.884;2024-02-26T13:01:18;94500;;;16.3;67.5
68891;BME280;55932;48.702;8.884;2024-02-26T13:03:49;94500;;;16.7;67
68891;BME280;55932;48.702;8.884;2024-02-26T13:06:20;94500;;;16.6;67
68891;BME280;55932;48.702;8.884;2024-02-26T13:08:57;94510;;;17;67
68891;BME280;55932;48.702;8.884;2024-02-26T13:16:43;94500;;;18.8;64.5
68891;BME280;55932;48.702;8.884;2024-02-26T13:19:09;94500;;;19.7;63.5
68891;BME280;55932;48.702;8.884;2024-02-26T13:21:31;94500;;;20;63.5
68891;BME280;55932;48.702;8.884;2024-02-26T13:23:55;94500;;;20.9;64
68891;BME280;55932;48.702;8.884;2024-02-26T13:26:26;94510;;;21.5;62
68891;BME280;55932;48.702;8.884;2024-02-26T13:29:00;94500;;;21.7;63
68891;BME280;55932;48.702;8.884;2024-02-26T13:31:21;94500;;;21;63.5
68891;BME280;55932;48.702;8.884;2024-02-26T13:36:23;94510;;;17.8;67
68891;BME280;55932;48.702;8.884;2024-02-26T13:38:59;94520;;;16;69.5
68891;BME280;55932;48.702;8.884;2024-02-26T13:41:26;94530;;;14.8;70.5
68891;BME280;55932;48.702;8.884;2024-02-26T13:43:55;94530;;;14.5;70.5
68891;BME280;55932;48.702;8.884;2024-02-26T13:46:26;94530;;;14.4;71
68891;BME280;55932;48.702;8.884;2024-02-26T13:51:27;94530;;;14.4;70
68891;BME280;55932;48.702;8.884;2024-02-26T13:53:58;94530;;;14.3;70.5
68891;BME280;55932;48.702;8.884;2024-02-26T14:01:30;94530;;;16;68
68891;BME280;55932;48.702;8.884;2024-02-26T14:06:45;94520;;;19.1;63
68891;BME280;55932;48.702;8.884;2024-02-26T14:09:15;94520;;;19.1;63
68891;BME280;55932;48.702;8.884;2024-02-26T14:11:45;94520;;;19.2;63
68891;BME280;55932;48.702;8.884;2024-02-26T14:14:15;94520;;;19.4;62.5
68891;BME280;55932;48.702;8.884;2024-02-26T14:19:10;94530;;;18.8;63.5
68891;BME280;55932;48.702;8.884;2024-02-26T14:21:40;94530;;;18.6;63.5
68891;BME280;55932;48.702;8.884;2024-02-26T14:24:11;94520;;;18.6;63.5
68891;BME280;55932;48.702;8.884;2024-02-26T14:26:49;94520;;;18.9;63
68891;BME280;55932;48.702;8.884;2024-02-26T14:31:36;94520;;;18.1;64
68891;BME280;55932;48.702;8.884;2024-02-26T14:34:07;94510;;;17.9;64.5
68891;BME280;55932;48.702;8.884;2024-02-26T14:36:38;94500;;;17.8;64.5
68891;BME280;55932;48.702;8.884;2024-02-26T14:39:09;94510;;;17;66
68891;BME280;55932;48.702;8.884;2024-02-26T14:41:39;94520;;;16.5;67
68891;BME280;55932;48.702;8.884;2024-02-26T14:44:10;94520;;;16.3;67
68891;BME280;55932;48.702;8.884;2024-02-26T14:46:41;94520;;;15.8;67.5
68891;BME280;55932;48.702;8.884;2024-02-26T14:56:44;94530;;;13.9;69.5
68891;BME280;55932;48.702;8.884;2024-02-26T14:59:15;94540;;;13.5;69.5
68891;BME280;55932;48.702;8.884;2024-02-26T15:04:23;94540;;;13.4;70
68891;BME280;55932;48.702;8.884;2024-02-26T15:06:54;94540;;;13.4;69.5
68891;BME280;55932;48.702;8.884;2024-02-26T15:14:19;94550;;;13.3;69.5
68891;BME280;55932;48.702;8.884;2024-02-26T15:21:55;94540;;;13.1;69.5
68891;BME280;55932;48.702;8.884;2024-02-26T15:24:22;94540;;;13.1;69.5
68891;BME280;55932;48.702;8.884;2024-02-26T15:26:53;94550;;;13.1;69.5
68891;BME280;55932;48.702;8.884;2024-02-26T15:29:23;94560;;;12.8;69.5
68891;BME280;55932;48.702;8.884;2024-02-26T15:32:08;94550;;;12.7;70
68891;BME280;55932;48.702;8.884;2024-02-26T15:34:38;94550;;;12.7;69.5
68891;BME280;55932;48.702;8.884;2024-02-26T15:37:01;94550;;;12.7;70
68891;BME280;55932;48.702;8.884;2024-02-26T15:39:39;94560;;;12.6;70
68891;BME280;55932;48.702;8.884;2024-02-26T15:42:10;94560;;;12.5;70
68891;BME280;55932;48.702;8.884;2024-02-26T15:46:58;94560;;;12.3;70
68891;BME280;55932;48.702;8.884;2024-02-26T15:49:29;94560;;;12.2;70
68891;BME280;55932;48.702;8.884;2024-02-26T15:52:13;94560;;;12.1;70
68891;BME280;55932;48.702;8.884;2024-02-26T15:54:30;94560;;;12.1;70
68891;BME280;55932;48.702;8.884;2024-02-26T15:57:01;94560;;;12;70
68891;BME280;55932;48.702;8.884;2024-02-26T15:59:32;94560;;;11.9;70.5
68891;BME280;55932;48.702;8.884;2024-02-26T16:02:02;94570;;;11.8;70.5
68891;BME280;55932;48.702;8.884;2024-02-26T16:04:33;94560;;;11.7;70.5
68891;BME280;55932;48.702;8.884;2024-02-26T16:07:04;94570;;;11.7;70.5
68891;BME280;55932;48.702;8.884;2024-02-26T16:09:35;94580;;;11.6;70.5
68891;BME280;55932;48.702;8.884;2024-02-26T16:14:41;94600;;;11.5;70.5
68891;BME280;55932;48.702;8.884;2024-02-26T16:17:14;94600;;;11.4;70.5
68891;BME280;55932;48.702;8.884;2024-02-26T16:24:39;94610;;;11.2;70.5
68891;BME280;55932;48.702;8.884;2024-02-26T16:29:40;94620;;;11.2;70.5
68891;BME280;55932;48.702;8.884;2024-02-26T16:32:18;94620;;;11.1;70.5
68891;BME280;55932;48.702;8.884;2024-02-26T16:34:49;94630;;;11.1;70.5
68891;BME280;55932;48.702;8.884;2024-02-26T16:39:43;94640;;;10.9;70.5
68891;BME280;55932;48.702;8.884;2024-02-26T16:42:14;94640;;;10.9;70.5
68891;BME280;55932;48.702;8.884;2024-02-26T16:44:45;94640;;;10.8;71
68891;BME280;55932;48.702;8.884;2024-02-26T16:54:50;94650;;;10.6;71
68891;BME280;55932;48.702;8.884;2024-02-26T16:57:42;94650;;;10.6;71
68891;BME280;55932;48.702;8.884;2024-02-26T17:00:04;94650;;;10.6;70.5
68891;BME280;55932;48.702;8.884;2024-02-26T17:02:33;94650;;;10.6;71
68891;BME280;55932;48.702;8.884;2024-02-26T17:05:03;94650;;;10.6;70.5
68891;BME280;55932;48.702;8.884;2024-02-26T17:09:57;94660;;;10.6;70.5
68891;BME280;55932;48.702;8.884;2024-02-26T17:12:28;94670;;;10.5;70.5
68891;BME280;55932;48.702;8.884;2024-02-26T17:14:58;94670;;;10.5;70.5
68891;BME280;55932;48.702;8.884;2024-02-26T17:17:29;94680;;;10.5;70.5
68891;BME280;55932;48.702;8.884;2024-02-26T17:20:08;94680;;;10.4;70.5
68891;BME280;55932;48.702;8.884;2024-02-26T17:22:43;94690;;;10.4;71
68891;BME280;55932;48.702;8.884;2024-02-26T17:27:30;94690;;;10.4;70.5
68891;BME280;55932;48.702;8.884;2024-02-26T17:30:01;94700;;;10.4;70.5
68891;BME280;55932;48.702;8.884;2024-02-26T17:32:32;94700;;;10.4;70.5
68891;BME280;55932;48.702;8.884;2024-02-26T17:35:03;94710;;;10.4;70.5
68891;BME280;55932;48.702;8.884;2024-02-26T17:37:34;94710;;;10.4;70.5
68891;BME280;55932;48.702;8.884;2024-02-26T17:40:12;94710;;;10.4;70.5
68891;BME280;55932;48.702;8.884;2024-02-26T17:42:43;94710;;;10.3;70.5
68891;BME280;55932;48.702;8.884;2024-02-26T17:50:15;94730;;;10.3;70.5
68891;BME280;55932;48.702;8.884;2024-02-26T17:52:45;94730;;;10.2;70.5
68891;BME280;55932;48.702;8.884;2024-02-26T17:57:40;94740;;;10.2;70.5
68891;BME280;55932;48.702;8.884;2024-02-26T18:00:10;94750;;;10.1;70.5
68891;BME280;55932;48.702;8.884;2024-02-26T18:02:41;94750;;;10.1;71
68891;BME280;55932;48.702;8.884;2024-02-26T18:10:06;94760;;;10;71
68891;BME280;55932;48.702;8.884;2024-02-26T18:12:38;94770;;;10;71
68891;BME280;55932;48.702;8.884;2024-02-26T18:15:08;94770;;;10;70.5
68891;BME280;55932;48.702;8.884;2024-02-26T18:17:40;94780;;;10;70.5
68891;BME280;55932;48.702;8.884;2024-02-26T18:20:19;94780;;;10;70.5
68891;BME280;55932;48.702;8.884;2024-02-26T18:27:42;94790;;;9.9;70.5
68891;BME280;55932;48.702;8.884;2024-02-26T18:32:56;94800;;;9.9;70.5
68891;BME280;55932;48.702;8.884;2024-02-26T18:35:26;94800;;;9.8;71
68891;BME280;55932;48.702;8.884;2024-02-26T18:37:51;94810;;;9.8;71
68891;BME280;55932;48.702;8.884;2024-02-26T18:40:26;94810;;;9.8;71
68891;BME280;55932;48.702;8.884;2024-02-26T18:42:53;94810;;;9.7;71
68891;BME280;55932;48.702;8.884;2024-02-26T18:45:16;94810;;;9.7;71
68891;BME280;55932;48.702;8.884;2024-02-26T18:52:48;94810;;;9.6;71
68891;BME280;55932;48.702;8.884;2024-02-26T18:57:49;94820;;;9.6;71
68891;BME280;55932;48.702;8.884;2024-02-26T19:02:51;94820;;;9.5;71
68891;BME280;55932;48.702;8.884;2024-02-26T19:10:24;94840;;;9.5;71
68891;BME280;55932;48.702;8.884;2024-02-26T19:13:14;94840;;;9.5;71
68891;BME280;55932;48.702;8.884;2024-02-26T19:18:08;94850;;;9.4;71
68891;BME280;55932;48.702;8.884;2024-02-26T19:20:38;94850;;;9.4;71
68891;BME280;55932;48.702;8.884;2024-02-26T19:23:08;94850;;;9.3;71
68891;BME280;55932;48.702;8.884;2024-02-26T19:25:38;94850;;;9.3;71
68891;BME280;55932;48.702;8.884;2024-02-26T19:28:03;94860;;;9.3;71
68891;BME280;55932;48.702;8.884;2024-02-26T19:30:34;94870;;;9.3;71
68891;BME280;55932;48.702;8.884;2024-02-26T19:33:05;94870;;;9.2;71
68891;BME280;55932;48.702;8.884;2024-02-26T19:35:43;94870;;;9.2;71
68891;BME280;55932;48.702;8.884;2024-02-26T19:40:37;94870;;;9.2;71